Worthington, Iowa
Current Conditions -  °F | °C
As of 9:15 AM on Wednesday 22 Oct 2014 (Local Time) from KMXO Reporting Station
Clear Clear  
Wind Chill:   Ceiling: Unl
Heat Index:   Visibility: 10mi
Dew Point:   Wind: 10mph
Humidity: 87%   Direction: 140°SE
Pressure: 30.32"   Gusts: NA
Location:  42.4°N, 91.12°W
Report Text: KMXO 221415Z AUTO 14009KT 10SM CLR 06/04 A3032 RMK AO2
Loading
Personal Weather Stations






























Interactive Weather Map
Tropical Storm Tracking
New forecast layout! Learn more

10-Day Weather Forecast

Advertisements
Track Severe Weather on mobile